createdAt,value
2017-10-24T00:00:38.569Z,1020.95
2017-10-24T00:01:47.412Z,1020.96
2017-10-24T00:02:56.463Z,1020.98
2017-10-24T00:04:06.010Z,1021
2017-10-24T00:05:14.858Z,1021.03
2017-10-24T00:06:23.704Z,1021.03
2017-10-24T00:07:32.551Z,1021.06
2017-10-24T00:08:41.450Z,1021.05
2017-10-24T00:09:50.296Z,1021.08
2017-10-24T00:10:59.143Z,1021.11
2017-10-24T00:12:07.994Z,1021.08
2017-10-24T00:13:16.843Z,1021.11
2017-10-24T00:14:25.992Z,1021.11
2017-10-24T00:15:34.839Z,1021.1
2017-10-24T00:16:43.687Z,1021.1
2017-10-24T00:17:52.538Z,1021.1
2017-10-24T00:19:01.392Z,1021.04
2017-10-24T00:20:10.381Z,1021.07
2017-10-24T00:21:19.229Z,1021.04
2017-10-24T00:22:28.079Z,1021.04
2017-10-24T00:23:36.924Z,1021.06
2017-10-24T00:24:45.775Z,1021.07
2017-10-24T00:25:54.826Z,1021.11
2017-10-24T00:27:03.673Z,1021.08
2017-10-24T00:28:12.523Z,1021.07
2017-10-24T00:29:21.367Z,1021.05
2017-10-24T00:30:30.215Z,1021.01
2017-10-24T00:31:39.160Z,1021.01
2017-10-24T00:32:48.006Z,1021.04
2017-10-24T00:33:56.855Z,1021.09
2017-10-24T00:35:05.704Z,1021.09
2017-10-24T00:36:14.552Z,1021.11
2017-10-24T00:37:23.503Z,1021.1
2017-10-24T00:38:32.348Z,1021.11
2017-10-24T00:39:41.197Z,1021.18
2017-10-24T00:40:50.044Z,1021.19
2017-10-24T00:41:58.891Z,1021.15
2017-10-24T00:43:07.739Z,1021.17
2017-10-24T00:44:16.586Z,1021.12
2017-10-24T00:45:25.437Z,1021.16
2017-10-24T00:46:34.294Z,1021.16
2017-10-24T00:47:43.140Z,1021.18
2017-10-24T00:48:52.133Z,1021.2
2017-10-24T00:50:00.979Z,1021.2
2017-10-24T00:51:10.175Z,1021.17
2017-10-24T00:52:19.028Z,1021.16
2017-10-24T00:53:27.879Z,1021.19
2017-10-24T00:54:36.875Z,1021.21
2017-10-24T00:55:45.724Z,1021.23
2017-10-24T00:56:54.570Z,1021.24
2017-10-24T00:58:03.419Z,1021.3
2017-10-24T00:59:12.285Z,1021.31
2017-10-24T01:00:21.271Z,1021.35
2017-10-24T01:01:30.124Z,1021.38
2017-10-24T01:02:38.973Z,1021.37
2017-10-24T01:03:47.821Z,1021.35
2017-10-24T01:04:56.671Z,1021.37
2017-10-24T01:06:05.620Z,1021.37
2017-10-24T01:07:14.472Z,1021.33
2017-10-24T01:08:23.320Z,1021.34
2017-10-24T01:09:32.172Z,1021.33
2017-10-24T01:10:41.018Z,1021.35
2017-10-24T01:11:50.411Z,1021.32
2017-10-24T01:12:59.261Z,1021.31
2017-10-24T01:14:08.111Z,1021.31
2017-10-24T01:15:16.960Z,1021.35
2017-10-24T01:16:25.808Z,1021.3
2017-10-24T01:17:34.807Z,1021.3
2017-10-24T01:18:43.654Z,1021.24
2017-10-24T01:19:52.507Z,1021.17
2017-10-24T01:21:01.359Z,1021.17
2017-10-24T01:22:10.209Z,1021.21
2017-10-24T01:23:19.159Z,1021.27
2017-10-24T01:24:28.006Z,1021.28
2017-10-24T01:25:36.857Z,1021.31
2017-10-24T01:26:45.714Z,1021.3
2017-10-24T01:27:54.558Z,1021.33
2017-10-24T01:29:03.505Z,1021.36
2017-10-24T01:30:12.351Z,1021.4
2017-10-24T01:31:21.198Z,1021.42
2017-10-24T01:32:30.046Z,1021.43
2017-10-24T01:33:38.894Z,1021.41
2017-10-24T01:34:47.947Z,1021.41
2017-10-24T01:35:56.795Z,1021.42
2017-10-24T01:37:05.647Z,1021.36
2017-10-24T01:38:14.496Z,1021.38
2017-10-24T01:39:23.346Z,1021.36
2017-10-24T01:40:32.345Z,1021.32
2017-10-24T01:41:41.193Z,1021.34
2017-10-24T01:42:50.040Z,1021.37
2017-10-24T01:43:58.880Z,1021.36
2017-10-24T01:45:07.729Z,1021.37
2017-10-24T01:46:17.178Z,1021.35
2017-10-24T01:47:26.023Z,1021.33
2017-10-24T01:48:34.871Z,1021.32
2017-10-24T01:49:44.065Z,1021.31
2017-10-24T01:50:52.915Z,1021.26
2017-10-24T01:52:01.863Z,1021.28
2017-10-24T01:53:10.712Z,1021.32
2017-10-24T01:54:19.559Z,1021.29
2017-10-24T01:55:28.410Z,1021.36
2017-10-24T01:56:37.258Z,1021.35
2017-10-24T01:57:46.204Z,1021.33
2017-10-24T01:58:55.051Z,1021.32
2017-10-24T02:00:03.902Z,1021.33
2017-10-24T02:01:13.097Z,1021.35
2017-10-24T02:02:21.945Z,1021.33
2017-10-24T02:03:31.043Z,1021.34
2017-10-24T02:04:39.892Z,1021.4
2017-10-24T02:05:48.743Z,1021.36
2017-10-24T02:06:57.601Z,1021.35
2017-10-24T02:08:06.442Z,1021.31
2017-10-24T02:09:15.442Z,1021.32
2017-10-24T02:10:24.293Z,1021.36
2017-10-24T02:11:33.136Z,1021.32
2017-10-24T02:12:41.984Z,1021.34
2017-10-24T02:13:50.830Z,1021.33
2017-10-24T02:14:59.878Z,1021.35
2017-10-24T02:16:08.726Z,1021.34
2017-10-24T02:17:17.576Z,1021.4
2017-10-24T02:18:26.425Z,1021.39
2017-10-24T02:19:35.273Z,1021.37
2017-10-24T02:20:44.122Z,1021.34
2017-10-24T02:21:52.972Z,1021.31
2017-10-24T02:23:01.820Z,1021.32
2017-10-24T02:24:10.665Z,1021.34
2017-10-24T02:25:19.513Z,1021.31
2017-10-24T02:26:28.514Z,1021.31
2017-10-24T02:27:37.361Z,1021.28
2017-10-24T02:28:46.206Z,1021.29
2017-10-24T02:29:55.054Z,1021.34
2017-10-24T02:31:03.919Z,1021.37
2017-10-24T02:32:13.051Z,1021.35
2017-10-24T02:33:21.896Z,1021.33
2017-10-24T02:34:30.747Z,1021.27
2017-10-24T02:35:39.595Z,1021.23
2017-10-24T02:36:48.442Z,1021.26
2017-10-24T02:37:57.443Z,1021.27
2017-10-24T02:39:06.292Z,1021.23
2017-10-24T02:40:15.144Z,1021.23
2017-10-24T02:41:23.991Z,1021.2
2017-10-24T02:42:32.840Z,1021.21
2017-10-24T02:43:41.890Z,1021.2
2017-10-24T02:44:50.744Z,1021.2
2017-10-24T02:45:59.955Z,1021.22
2017-10-24T02:47:08.803Z,1021.19
2017-10-24T02:48:17.650Z,1021.1
2017-10-24T02:49:26.650Z,1021.13
2017-10-24T02:50:35.500Z,1021.12
2017-10-24T02:51:44.348Z,1021.12
2017-10-24T02:52:53.196Z,1021.19
2017-10-24T02:54:02.045Z,1021.23
2017-10-24T02:55:10.945Z,1021.29
2017-10-24T02:56:19.796Z,1021.29
2017-10-24T02:57:28.647Z,1021.28
2017-10-24T02:58:37.496Z,1021.28
2017-10-24T02:59:46.345Z,1021.29
2017-10-24T03:00:55.292Z,1021.29
2017-10-24T03:02:04.140Z,1021.31
2017-10-24T03:03:12.990Z,1021.28
2017-10-24T03:04:21.840Z,1021.34
2017-10-24T03:05:30.688Z,1021.26
2017-10-24T03:06:39.638Z,1021.25
2017-10-24T03:07:48.482Z,1021.26
2017-10-24T03:08:57.331Z,1021.31
2017-10-24T03:10:06.181Z,1021.3
2017-10-24T03:11:15.029Z,1021.32
2017-10-24T03:12:24.027Z,1021.3
2017-10-24T03:13:32.876Z,1021.27
2017-10-24T03:14:41.725Z,1021.25
2017-10-24T03:15:50.569Z,1021.23
2017-10-24T03:16:59.417Z,1021.21
2017-10-24T03:18:08.365Z,1021.23
2017-10-24T03:19:17.215Z,1021.22
2017-10-24T03:20:26.064Z,1021.19
2017-10-24T03:21:34.913Z,1021.2
2017-10-24T03:22:43.759Z,1021.21
2017-10-24T03:23:52.604Z,1021.22
2017-10-24T03:25:01.451Z,1021.24
2017-10-24T03:26:10.295Z,1021.21
2017-10-24T03:27:19.141Z,1021.22
2017-10-24T03:28:27.988Z,1021.17
2017-10-24T03:29:36.884Z,1021.25
2017-10-24T03:30:45.733Z,1021.29
2017-10-24T03:31:54.579Z,1021.28
2017-10-24T03:33:03.427Z,1021.3
2017-10-24T03:34:12.275Z,1021.3
2017-10-24T03:35:21.371Z,1021.32
2017-10-24T03:36:30.217Z,1021.27
2017-10-24T03:37:39.414Z,1021.28
2017-10-24T03:38:48.262Z,1021.27
2017-10-24T03:39:57.108Z,1021.24
2017-10-24T03:41:05.957Z,1021.22
2017-10-24T03:42:14.807Z,1021.24
2017-10-24T03:43:23.668Z,1021.24
2017-10-24T03:44:32.499Z,1021.23
2017-10-24T03:45:41.346Z,1021.26
2017-10-24T03:46:50.691Z,1021.26
2017-10-24T03:47:59.538Z,1021.21
2017-10-24T03:49:08.744Z,1021.25
2017-10-24T03:50:17.589Z,1021.26
2017-10-24T03:51:26.434Z,1021.21
2017-10-24T03:52:35.331Z,1021.11
2017-10-24T03:53:44.180Z,1021.08
2017-10-24T03:54:53.028Z,1021.09
2017-10-24T03:56:01.879Z,1021.13
2017-10-24T03:57:10.726Z,1021.16
2017-10-24T03:58:19.722Z,1021.18
2017-10-24T03:59:28.570Z,1021.19
2017-10-24T04:00:37.417Z,1021.21
2017-10-24T04:01:46.268Z,1021.19
2017-10-24T04:02:55.120Z,1021.12
2017-10-24T04:04:03.968Z,1021.1
2017-10-24T04:05:12.815Z,1021.1
2017-10-24T04:06:21.661Z,1021.03
2017-10-24T04:07:30.510Z,1021.02
2017-10-24T04:08:39.358Z,1020.98
2017-10-24T04:09:48.307Z,1020.94
2017-10-24T04:10:57.505Z,1020.93
2017-10-24T04:12:06.353Z,1020.9
2017-10-24T04:13:15.202Z,1020.86
2017-10-24T04:14:24.049Z,1020.88
2017-10-24T04:15:33.096Z,1020.91
2017-10-24T04:16:41.946Z,1020.89
2017-10-24T04:17:50.792Z,1020.92
2017-10-24T04:18:59.642Z,1020.94
2017-10-24T04:20:08.489Z,1020.95
2017-10-24T04:21:17.337Z,1020.95
2017-10-24T04:22:26.188Z,1021.03
2017-10-24T04:23:35.039Z,1021.01
2017-10-24T04:24:43.887Z,1021.01
2017-10-24T04:25:52.733Z,1021
2017-10-24T04:27:01.580Z,1020.98
2017-10-24T04:28:10.427Z,1021.08
2017-10-24T04:29:19.273Z,1021.09
2017-10-24T04:30:28.121Z,1021.11
2017-10-24T04:31:36.972Z,1021.08
2017-10-24T04:32:46.024Z,1021.07
2017-10-24T04:33:54.874Z,1021.08
2017-10-24T04:35:03.725Z,1021.09
2017-10-24T04:36:12.574Z,1021.11
2017-10-24T04:37:21.422Z,1021.06
2017-10-24T04:38:30.374Z,1021.04
2017-10-24T04:39:39.215Z,1021.04
2017-10-24T04:40:48.063Z,1021
2017-10-24T04:41:56.919Z,1020.97
2017-10-24T04:43:05.768Z,1020.97
2017-10-24T04:44:14.715Z,1020.97
2017-10-24T04:45:23.564Z,1021.03
2017-10-24T04:46:32.410Z,1021.08
2017-10-24T04:47:41.263Z,1021.03
2017-10-24T04:48:50.453Z,1021.02
2017-10-24T04:49:59.706Z,1021.04
2017-10-24T04:51:08.552Z,1021.09
2017-10-24T04:52:17.403Z,1021.07
2017-10-24T04:53:26.251Z,1021.03
2017-10-24T04:54:35.100Z,1021.03
2017-10-24T04:55:44.445Z,1021.03
2017-10-24T04:56:53.289Z,1020.99
2017-10-24T04:58:02.137Z,1020.99
2017-10-24T04:59:10.987Z,1020.99
2017-10-24T05:00:19.838Z,1021.11
2017-10-24T05:01:28.749Z,1021.06
2017-10-24T05:02:37.598Z,1021.1
2017-10-24T05:03:46.802Z,1021.09
2017-10-24T05:04:55.652Z,1021.1
2017-10-24T05:06:04.504Z,1021.07
2017-10-24T05:07:13.757Z,1021.09
2017-10-24T05:08:22.612Z,1021.07
2017-10-24T05:09:31.458Z,1021.11
2017-10-24T05:10:40.308Z,1021.13
2017-10-24T05:11:49.156Z,1021.16
2017-10-24T05:12:58.102Z,1021.19
2017-10-24T05:14:06.956Z,1021.16
2017-10-24T05:15:15.806Z,1021.18
2017-10-24T05:16:24.807Z,1021.16
2017-10-24T05:17:33.688Z,1021.14
2017-10-24T05:18:43.185Z,1021.21
2017-10-24T05:19:52.032Z,1021.22
2017-10-24T05:21:00.882Z,1021.23
2017-10-24T05:22:09.731Z,1021.23
2017-10-24T05:23:18.575Z,1021.22
2017-10-24T05:24:27.445Z,1021.15
2017-10-24T05:25:36.298Z,1021.13
2017-10-24T05:26:45.146Z,1021.1
2017-10-24T05:27:53.993Z,1021.12
2017-10-24T05:29:03.238Z,1021.08
2017-10-24T05:30:12.087Z,1021.05
2017-10-24T05:31:20.939Z,1021.04
2017-10-24T05:32:29.786Z,1021.02
2017-10-24T05:33:38.634Z,1020.98
2017-10-24T05:34:47.483Z,1020.99
2017-10-24T05:35:56.331Z,1021.03
2017-10-24T05:37:05.182Z,1020.99
2017-10-24T05:38:14.036Z,1021
2017-10-24T05:39:22.878Z,1021.01
2017-10-24T05:40:31.720Z,1021.01
2017-10-24T05:41:40.567Z,1021.04
2017-10-24T05:42:49.419Z,1021.05
2017-10-24T05:43:58.280Z,1021.05
2017-10-24T05:45:07.129Z,1021.05
2017-10-24T05:46:15.977Z,1021.05
2017-10-24T05:47:24.827Z,1021.07
2017-10-24T05:48:33.674Z,1021.06
2017-10-24T05:49:42.673Z,1021.1
2017-10-24T05:50:51.521Z,1021.12
2017-10-24T05:52:00.373Z,1021.1
2017-10-24T05:53:09.219Z,1021.12
2017-10-24T05:54:18.070Z,1021.1
2017-10-24T05:55:26.915Z,1021.07
2017-10-24T05:56:35.841Z,1021.08
2017-10-24T05:57:44.688Z,1021.06
2017-10-24T05:58:53.538Z,1021.03
2017-10-24T06:00:02.402Z,1021.01
2017-10-24T06:01:11.550Z,1020.92
2017-10-24T06:02:20.432Z,1020.9
2017-10-24T06:03:29.282Z,1020.9
2017-10-24T06:04:38.130Z,1020.91
2017-10-24T06:05:47.030Z,1020.87
2017-10-24T06:06:56.025Z,1020.86
2017-10-24T06:08:04.899Z,1020.85
2017-10-24T06:09:13.749Z,1020.85
2017-10-24T06:10:22.609Z,1020.82
2017-10-24T06:11:31.462Z,1020.88
2017-10-24T06:12:40.515Z,1020.89
2017-10-24T06:13:49.408Z,1020.92
2017-10-24T06:14:58.260Z,1020.92
2017-10-24T06:16:07.105Z,1020.88
2017-10-24T06:17:15.953Z,1020.87
2017-10-24T06:18:24.949Z,1020.85
2017-10-24T06:19:33.822Z,1020.84
2017-10-24T06:20:42.992Z,1020.89
2017-10-24T06:21:51.840Z,1020.88
2017-10-24T06:23:01.087Z,1020.9
2017-10-24T06:24:10.086Z,1020.92
2017-10-24T06:25:18.940Z,1020.96
2017-10-24T06:26:28.173Z,1020.98
2017-10-24T06:27:37.042Z,1021
2017-10-24T06:28:46.092Z,1021
2017-10-24T06:29:55.341Z,1020.99
2017-10-24T06:31:04.197Z,1020.99
2017-10-24T06:32:13.040Z,1021.01
2017-10-24T06:33:21.911Z,1021
2017-10-24T06:34:30.760Z,1020.97
2017-10-24T06:35:39.760Z,1020.9
2017-10-24T06:36:48.612Z,1020.93
2017-10-24T06:37:57.807Z,1020.94
2017-10-24T06:39:06.669Z,1020.94
2017-10-24T06:40:15.523Z,1020.89
2017-10-24T06:41:24.621Z,1020.9
2017-10-24T06:42:33.480Z,1020.86
2017-10-24T06:43:42.335Z,1020.88
2017-10-24T06:44:51.193Z,1020.91
2017-10-24T06:46:00.039Z,1020.94
2017-10-24T06:47:09.065Z,1020.93
2017-10-24T06:48:17.923Z,1020.9
2017-10-24T06:49:27.119Z,1020.88
2017-10-24T06:50:36.335Z,1020.91
2017-10-24T06:51:45.270Z,1020.85
2017-10-24T06:52:54.127Z,1020.85
2017-10-24T06:54:02.997Z,1020.87
2017-10-24T06:55:11.868Z,1020.87
2017-10-24T06:56:20.719Z,1020.86
2017-10-24T06:57:29.603Z,1020.88
2017-10-24T06:58:38.712Z,1020.89
2017-10-24T06:59:47.562Z,1020.9
2017-10-24T07:00:56.817Z,1020.89
2017-10-24T07:02:05.683Z,1020.9
2017-10-24T07:03:14.534Z,1020.87
2017-10-24T07:04:23.585Z,1020.96
2017-10-24T07:05:32.434Z,1020.91
2017-10-24T07:06:41.297Z,1020.93
2017-10-24T07:07:50.601Z,1020.97
2017-10-24T07:08:59.477Z,1020.94
2017-10-24T07:10:08.477Z,1020.91
2017-10-24T07:11:17.336Z,1020.98
2017-10-24T07:12:26.232Z,1021.01
2017-10-24T07:13:35.424Z,1021.03
2017-10-24T07:14:44.272Z,1021.04
2017-10-24T07:15:53.387Z,1021.04
2017-10-24T07:17:02.613Z,1021.05
2017-10-24T07:18:11.514Z,1021.01
2017-10-24T07:19:20.364Z,1021.01
2017-10-24T07:20:29.242Z,1020.95
2017-10-24T07:21:38.193Z,1020.95
2017-10-24T07:22:47.044Z,1020.97
2017-10-24T07:23:55.890Z,1020.99
2017-10-24T07:25:04.739Z,1020.93
2017-10-24T07:26:13.589Z,1020.89
2017-10-24T07:27:22.539Z,1020.88
2017-10-24T07:28:31.387Z,1020.88
2017-10-24T07:29:40.235Z,1020.83
2017-10-24T07:30:49.430Z,1020.82
2017-10-24T07:31:58.279Z,1020.79
2017-10-24T07:33:07.231Z,1020.77
2017-10-24T07:34:16.081Z,1020.78
2017-10-24T07:35:24.929Z,1020.82
2017-10-24T07:36:33.778Z,1020.83
2017-10-24T07:37:42.625Z,1020.81
2017-10-24T07:38:51.626Z,1020.83
2017-10-24T07:40:00.476Z,1020.82
2017-10-24T07:41:09.329Z,1020.91
2017-10-24T07:42:18.176Z,1020.85
2017-10-24T07:43:27.026Z,1020.84
2017-10-24T07:44:35.976Z,1020.86
2017-10-24T07:45:44.832Z,1020.89
2017-10-24T07:46:53.683Z,1020.86
2017-10-24T07:48:02.879Z,1020.82
2017-10-24T07:49:11.730Z,1020.86
2017-10-24T07:50:21.126Z,1020.8
2017-10-24T07:51:29.971Z,1020.85
2017-10-24T07:52:38.820Z,1020.84
2017-10-24T07:53:47.668Z,1020.83
2017-10-24T07:54:56.535Z,1020.82
2017-10-24T07:56:05.776Z,1020.8
2017-10-24T07:57:14.627Z,1020.83
2017-10-24T07:58:23.476Z,1020.87
2017-10-24T07:59:32.325Z,1020.84
2017-10-24T08:00:41.175Z,1020.84
2017-10-24T08:02:22.179Z,1020.83
2017-10-24T08:03:31.034Z,1020.83
2017-10-24T08:04:40.228Z,1020.8
2017-10-24T08:05:49.078Z,1020.78
2017-10-24T08:06:58.331Z,1020.81
2017-10-24T08:08:07.180Z,1020.83
2017-10-24T08:09:16.030Z,1020.91
2017-10-24T08:10:24.880Z,1020.84
2017-10-24T08:11:33.730Z,1020.87
2017-10-24T08:12:42.683Z,1020.88
2017-10-24T08:13:51.538Z,1020.88
2017-10-24T08:15:00.388Z,1020.89
2017-10-24T08:16:09.239Z,1020.85
2017-10-24T08:17:18.089Z,1020.86
2017-10-24T08:18:27.191Z,1020.84
2017-10-24T08:19:36.044Z,1020.82
2017-10-24T08:20:44.894Z,1020.77
2017-10-24T08:21:53.746Z,1020.76
2017-10-24T08:23:02.595Z,1020.78
2017-10-24T08:24:11.850Z,1020.76
2017-10-24T08:25:20.694Z,1020.76
2017-10-24T08:26:29.546Z,1020.75
2017-10-24T08:27:38.396Z,1020.77
2017-10-24T08:28:47.250Z,1020.72
2017-10-24T08:29:56.348Z,1020.68
2017-10-24T08:31:05.202Z,1020.63
2017-10-24T08:32:14.054Z,1020.67
2017-10-24T08:33:23.279Z,1020.68
2017-10-24T08:34:32.125Z,1020.69
2017-10-24T08:35:41.282Z,1020.69
2017-10-24T08:36:50.131Z,1020.67
2017-10-24T08:37:58.979Z,1020.62
2017-10-24T08:39:07.826Z,1020.66
2017-10-24T08:40:16.674Z,1020.66
2017-10-24T08:41:25.728Z,1020.71
2017-10-24T08:42:34.580Z,1020.7
2017-10-24T08:43:43.428Z,1020.67
2017-10-24T08:44:52.283Z,1020.69
2017-10-24T08:46:01.131Z,1020.71
2017-10-24T08:47:10.083Z,1020.71
2017-10-24T08:48:18.931Z,1020.71
2017-10-24T08:49:27.792Z,1020.72
2017-10-24T08:50:36.635Z,1020.71
2017-10-24T08:51:45.490Z,1020.64
2017-10-24T08:52:54.435Z,1020.69
2017-10-24T08:54:03.291Z,1020.66
2017-10-24T08:55:12.482Z,1020.65
2017-10-24T08:56:21.332Z,1020.63
2017-10-24T08:57:30.194Z,1020.62
2017-10-24T08:58:39.586Z,1020.58
2017-10-24T08:59:48.786Z,1020.53
2017-10-24T09:00:57.635Z,1020.54
2017-10-24T09:02:06.485Z,1020.51
2017-10-24T09:03:15.334Z,1020.5
2017-10-24T09:04:24.283Z,1020.5
2017-10-24T09:05:33.135Z,1020.5
2017-10-24T09:06:41.984Z,1020.46
2017-10-24T09:07:51.180Z,1020.5
2017-10-24T09:09:00.377Z,1020.42
2017-10-24T09:10:09.425Z,1020.4
2017-10-24T09:11:18.275Z,1020.37
2017-10-24T09:12:27.125Z,1020.34
2017-10-24T09:13:35.969Z,1020.35
2017-10-24T09:14:44.819Z,1020.43
2017-10-24T09:15:54.070Z,1020.45
2017-10-24T09:17:02.918Z,1020.49
2017-10-24T09:18:11.769Z,1020.51
2017-10-24T09:19:20.959Z,1020.54
2017-10-24T09:20:29.810Z,1020.49
2017-10-24T09:21:38.961Z,1020.58
2017-10-24T09:22:47.813Z,1020.56
2017-10-24T09:23:56.664Z,1020.57
2017-10-24T09:25:05.512Z,1020.57
2017-10-24T09:26:14.364Z,1020.55
2017-10-24T09:27:23.615Z,1020.57
2017-10-24T09:28:32.465Z,1020.59
2017-10-24T09:29:41.316Z,1020.54
2017-10-24T09:30:50.164Z,1020.51
2017-10-24T09:31:59.015Z,1020.48
2017-10-24T09:33:08.072Z,1020.39
2017-10-24T09:34:16.922Z,1020.36
2017-10-24T09:35:25.771Z,1020.26
2017-10-24T09:36:34.619Z,1020.2
2017-10-24T09:37:43.470Z,1020.2
2017-10-24T09:38:52.471Z,1020.21
2017-10-24T09:40:01.319Z,1020.26
2017-10-24T09:41:10.219Z,1020.27
2017-10-24T09:42:19.075Z,1020.28
2017-10-24T09:43:27.918Z,1020.22
2017-10-24T09:44:36.819Z,1020.26
2017-10-24T09:45:45.670Z,1020.22
2017-10-24T09:46:54.532Z,1020.17
2017-10-24T09:48:03.366Z,1020.12
2017-10-24T09:49:12.213Z,1020.12
2017-10-24T09:50:21.614Z,1020.09
2017-10-24T09:51:30.464Z,1020.16
2017-10-24T09:52:39.663Z,1020.18
2017-10-24T09:53:48.511Z,1020.23
2017-10-24T09:54:57.708Z,1020.26
2017-10-24T09:56:06.857Z,1020.23
2017-10-24T09:57:15.705Z,1020.32
2017-10-24T09:58:24.916Z,1020.35
2017-10-24T09:59:33.768Z,1020.39
2017-10-24T10:00:42.616Z,1020.43
2017-10-24T10:01:51.617Z,1020.42
2017-10-24T10:03:00.469Z,1020.4
2017-10-24T10:04:09.318Z,1020.46
2017-10-24T10:05:18.867Z,1020.46
2017-10-24T10:06:27.715Z,1020.47
2017-10-24T10:07:36.566Z,1020.46
2017-10-24T10:08:45.418Z,1020.43
2017-10-24T10:09:54.273Z,1020.38
2017-10-24T10:11:03.123Z,1020.37
2017-10-24T10:12:11.974Z,1020.35
2017-10-24T10:13:21.025Z,1020.37
2017-10-24T10:14:29.878Z,1020.32
2017-10-24T10:15:38.727Z,1020.3
2017-10-24T10:16:47.578Z,1020.29
2017-10-24T10:17:56.429Z,1020.34
2017-10-24T10:19:05.429Z,1020.35
2017-10-24T10:20:14.283Z,1020.38
2017-10-24T10:21:23.134Z,1020.34
2017-10-24T10:22:31.984Z,1020.26
2017-10-24T10:23:40.834Z,1020.23
2017-10-24T10:24:49.736Z,1020.24
2017-10-24T10:25:58.587Z,1020.22
2017-10-24T10:27:07.445Z,1020.23
2017-10-24T10:28:16.297Z,1020.23
2017-10-24T10:29:25.153Z,1020.25
2017-10-24T10:30:34.204Z,1020.25
2017-10-24T10:31:43.056Z,1020.26
2017-10-24T10:32:51.907Z,1020.29
2017-10-24T10:34:00.756Z,1020.28
2017-10-24T10:35:09.948Z,1020.26
2017-10-24T10:36:18.949Z,1020.25
2017-10-24T10:37:27.801Z,1020.24
2017-10-24T10:38:36.652Z,1020.26
2017-10-24T10:39:45.501Z,1020.18
2017-10-24T10:40:54.353Z,1020.17
2017-10-24T10:42:03.453Z,1020.17
2017-10-24T10:43:12.305Z,1020.18
2017-10-24T10:44:21.157Z,1020.18
2017-10-24T10:45:30.011Z,1020.2
2017-10-24T10:46:38.861Z,1020.16
2017-10-24T10:47:47.807Z,1020.16
2017-10-24T10:48:56.658Z,1020.16
2017-10-24T10:50:05.510Z,1020.16
2017-10-24T10:51:14.359Z,1020.17
2017-10-24T10:52:23.212Z,1020.16
2017-10-24T10:53:32.169Z,1020.17
2017-10-24T10:54:41.017Z,1020.21
2017-10-24T10:55:49.868Z,1020.13
2017-10-24T10:56:58.720Z,1020.09
2017-10-24T10:58:07.600Z,1020.11
2017-10-24T10:59:16.555Z,1020.09
2017-10-24T11:00:25.427Z,1020.06
2017-10-24T11:01:34.281Z,1020.07
2017-10-24T11:02:43.130Z,1020.01
2017-10-24T11:03:51.982Z,1019.95
2017-10-24T11:05:00.933Z,1019.99
2017-10-24T11:06:09.791Z,1019.96
2017-10-24T11:07:18.687Z,1019.92
2017-10-24T11:08:27.885Z,1019.88
2017-10-24T11:09:36.735Z,1019.84
2017-10-24T11:10:45.690Z,1019.85
2017-10-24T11:11:54.542Z,1019.89
2017-10-24T11:13:03.393Z,1019.92
2017-10-24T11:14:12.245Z,1019.91
2017-10-24T11:15:21.097Z,1019.91
2017-10-24T11:16:30.050Z,1019.92
2017-10-24T11:17:38.908Z,1019.95
2017-10-24T11:18:47.755Z,1020.01
2017-10-24T11:19:56.634Z,1019.98
2017-10-24T11:21:05.777Z,1020.01
2017-10-24T11:22:14.927Z,1020.01
2017-10-24T11:23:23.783Z,1020.01
2017-10-24T11:24:32.636Z,1020.04
2017-10-24T11:25:41.492Z,1020.02
2017-10-24T11:26:50.359Z,1020.03
2017-10-24T11:28:00.083Z,1020.02
2017-10-24T11:29:09.003Z,1020.02
2017-10-24T11:30:17.857Z,1020
2017-10-24T11:31:26.706Z,1020.01
2017-10-24T11:32:35.560Z,1020
2017-10-24T11:33:44.460Z,1020.01
2017-10-24T11:34:53.311Z,1020.02
2017-10-24T11:36:02.163Z,1019.97
2017-10-24T11:37:11.013Z,1020.01
2017-10-24T11:38:19.865Z,1020
2017-10-24T11:39:28.819Z,1019.98
2017-10-24T11:40:37.668Z,1020.01
2017-10-24T11:41:46.520Z,1020.05
2017-10-24T11:42:55.376Z,1020.03
2017-10-24T11:44:04.230Z,1020.07
2017-10-24T11:45:13.232Z,1020.06
2017-10-24T11:46:22.088Z,1020.18
2017-10-24T11:47:30.944Z,1020.17
2017-10-24T11:48:39.791Z,1020.19
2017-10-24T11:49:49.035Z,1020.16
2017-10-24T11:50:58.254Z,1020.18
2017-10-24T11:52:07.115Z,1020.15
2017-10-24T11:53:15.970Z,1020.1
2017-10-24T11:54:24.828Z,1020.03
2017-10-24T11:55:33.676Z,1020.02
2017-10-24T11:56:42.624Z,1019.9
2017-10-24T11:57:51.480Z,1019.84
2017-10-24T11:59:00.332Z,1019.77
2017-10-24T12:00:09.182Z,1019.86
2017-10-24T12:01:18.041Z,1019.85
2017-10-24T12:02:26.988Z,1019.92
2017-10-24T12:03:35.840Z,1019.9
2017-10-24T12:04:44.690Z,1019.94
2017-10-24T12:05:53.538Z,1019.9
2017-10-24T12:07:02.390Z,1019.9
2017-10-24T12:08:11.393Z,1019.83
2017-10-24T12:09:20.257Z,1019.75
2017-10-24T12:10:29.110Z,1019.77
2017-10-24T12:11:37.960Z,1019.68
2017-10-24T12:12:46.813Z,1019.68
2017-10-24T12:13:56.649Z,1019.68
2017-10-24T12:15:05.500Z,1019.68
2017-10-24T12:16:14.350Z,1019.68
2017-10-24T12:17:23.202Z,1019.67
2017-10-24T12:18:32.053Z,1019.61
2017-10-24T12:19:41.212Z,1019.59
2017-10-24T12:20:50.063Z,1019.56
2017-10-24T12:21:58.914Z,1019.55
2017-10-24T12:23:07.766Z,1019.47
2017-10-24T12:24:16.616Z,1019.53
2017-10-24T12:25:25.468Z,1019.54
2017-10-24T12:26:34.319Z,1019.6
2017-10-24T12:27:43.172Z,1019.63
2017-10-24T12:28:52.025Z,1019.65
2017-10-24T12:30:00.878Z,1019.67
2017-10-24T12:31:09.929Z,1019.72
2017-10-24T12:32:18.777Z,1019.78
2017-10-24T12:33:27.627Z,1019.88
2017-10-24T12:34:36.477Z,1019.87
2017-10-24T12:35:45.329Z,1019.9
2017-10-24T12:36:54.483Z,1019.85
2017-10-24T12:38:03.332Z,1019.83
2017-10-24T12:39:12.194Z,1019.72
2017-10-24T12:40:21.032Z,1019.7
2017-10-24T12:41:29.884Z,1019.71
2017-10-24T12:42:38.739Z,1019.64
2017-10-24T12:43:47.590Z,1019.61
2017-10-24T12:44:56.445Z,1019.61
2017-10-24T12:46:05.297Z,1019.6
2017-10-24T12:47:14.149Z,1019.58
2017-10-24T12:48:23.301Z,1019.56
2017-10-24T12:49:32.154Z,1019.5
2017-10-24T12:50:41.007Z,1019.48
2017-10-24T12:51:49.861Z,1019.46
2017-10-24T12:52:58.711Z,1019.45
2017-10-24T12:54:07.563Z,1019.41
2017-10-24T12:55:16.412Z,1019.43
2017-10-24T12:56:25.265Z,1019.41
2017-10-24T12:57:34.115Z,1019.44
2017-10-24T12:58:43.312Z,1019.45
2017-10-24T12:59:52.312Z,1019.54
2017-10-24T13:01:01.164Z,1019.48
2017-10-24T13:02:10.018Z,1019.47
2017-10-24T13:03:18.869Z,1019.51
2017-10-24T13:04:27.721Z,1019.55
2017-10-24T13:05:36.575Z,1019.52
2017-10-24T13:06:45.427Z,1019.5
2017-10-24T13:07:54.280Z,1019.46
2017-10-24T13:09:03.135Z,1019.45
2017-10-24T13:10:11.986Z,1019.47
2017-10-24T13:11:20.839Z,1019.44
2017-10-24T13:12:29.691Z,1019.51
2017-10-24T13:13:38.544Z,1019.43
2017-10-24T13:14:47.400Z,1019.4
2017-10-24T13:15:56.253Z,1019.36
2017-10-24T13:17:05.101Z,1019.35
2017-10-24T13:18:13.972Z,1019.34
2017-10-24T13:19:22.803Z,1019.38
2017-10-24T13:20:31.653Z,1019.39
2017-10-24T13:21:40.503Z,1019.41
2017-10-24T13:22:49.354Z,1019.41
2017-10-24T13:23:58.205Z,1019.41
2017-10-24T13:25:07.056Z,1019.47
2017-10-24T13:26:15.914Z,1019.5
2017-10-24T13:27:24.757Z,1019.44
2017-10-24T13:28:33.610Z,1019.43
2017-10-24T13:29:42.810Z,1019.47
2017-10-24T13:30:51.659Z,1019.46
2017-10-24T13:32:00.511Z,1019.43
2017-10-24T13:33:09.364Z,1019.46
2017-10-24T13:34:18.219Z,1019.4
2017-10-24T13:35:27.271Z,1019.43
2017-10-24T13:36:36.124Z,1019.41
2017-10-24T13:37:44.980Z,1019.38
2017-10-24T13:38:53.831Z,1019.36
2017-10-24T13:40:02.679Z,1019.39
2017-10-24T13:41:11.727Z,1019.39
2017-10-24T13:42:20.579Z,1019.41
2017-10-24T13:43:29.432Z,1019.36
2017-10-24T13:44:38.282Z,1019.35
2017-10-24T13:45:47.478Z,1019.37
2017-10-24T13:46:56.387Z,1019.38
2017-10-24T13:48:05.236Z,1019.35
2017-10-24T13:49:14.085Z,1019.32
2017-10-24T13:50:22.940Z,1019.32
2017-10-24T13:51:32.141Z,1019.31
2017-10-24T13:52:41.640Z,1019.27
2017-10-24T13:53:50.494Z,1019.3
2017-10-24T13:54:59.355Z,1019.3
2017-10-24T13:56:08.221Z,1019.35
2017-10-24T13:57:17.074Z,1019.33